Time;durP1;ratioP1;P1;durP2;ratioP2;P2;SDS_P1;SDS_P2;PMS_P1;PMS_P2;Temp;Humidity;BMP_temperature;BMP_pressure;BME280_temperature;BME280_humidity;BME280_pressure;Samples;Min_cycle;Max_cycle;Signal;HPM_P1;HPM_P2
2021/03/06 10:20:06;;;;;;;2.30;1.70;;;2.40;44.10;;;;;;3535049;27;20462;31
2021/03/06 10:22:48;;;;;;;2.00;1.70;;;2.30;44.00;;;;;;3991933;33;21411;31
2021/03/06 10:27:46;;;;;;;2.55;1.90;;;2.40;42.80;;;;;;3998914;27;20090;31
2021/03/06 10:30:30;;;;;;;2.33;1.70;;;2.40;42.80;;;;;;4022349;27;20110;31
2021/03/06 10:35:25;;;;;;;3.33;2.08;;;2.40;41.90;;;;;;4000097;27;20486;31
2021/03/06 10:37:56;;;;;;;3.63;1.77;;;2.50;42.40;;;;;;4007037;33;20279;31
2021/03/06 10:40:50;;;;;;;2.58;1.67;;;2.60;42.80;;;;;;3998360;27;21200;31
2021/03/06 10:45:45;;;;;;;4.82;2.40;;;2.90;42.10;;;;;;4010812;27;20118;31
2021/03/06 10:48:25;;;;;;;3.03;2.15;;;2.80;42.20;;;;;;4001930;33;20155;31
2021/03/06 10:58:43;;;;;;;3.53;2.20;;;2.80;42.50;;;;;;4025869;33;20099;31
2021/03/06 11:03:46;;;;;;;3.30;2.15;;;2.90;42.30;;;;;;4032518;33;20106;31
2021/03/06 11:06:18;;;;;;;5.53;2.80;;;3.00;41.00;;;;;;3996437;27;21180;31
2021/03/06 11:08:44;;;;;;;3.70;2.13;;;2.90;40.60;;;;;;3995973;27;20949;31
2021/03/06 11:11:24;;;;;;;3.90;2.70;;;2.80;40.30;;;;;;4007223;33;20396;31
2021/03/06 11:16:43;;;;;;;5.60;2.58;;;2.70;40.40;;;;;;3985673;33;20170;31
2021/03/06 11:29:16;;;;;;;1.73;1.58;;;3.10;40.00;;;;;;4009440;27;21092;31
2021/03/06 11:31:47;;;;;;;2.25;2.00;;;3.10;38.10;;;;;;4011589;27;21191;31
2021/03/06 11:36:51;;;;;;;3.33;2.25;;;2.90;39.10;;;;;;3996775;35;20149;31
2021/03/06 11:39:43;;;;;;;1.98;1.65;;;3.00;39.80;;;;;;3984194;33;21143;31
2021/03/06 11:44:38;;;;;;;3.65;1.75;;;3.00;38.40;;;;;;3996923;33;20118;31
2021/03/06 11:47:36;;;;;;;1.58;1.48;;;3.10;38.10;;;;;;4022473;27;20096;31
2021/03/06 12:01:35;;;;;;;1.55;1.45;;;3.20;35.30;;;;;;4035929;27;20122;31
2021/03/06 12:04:26;;;;;;;2.45;2.00;;;3.10;34.30;;;;;;3982483;27;21095;31
2021/03/06 12:09:46;;;;;;;1.45;1.20;;;3.00;35.40;;;;;;4006921;27;20118;31
2021/03/06 12:21:20;;;;;;;4.50;1.90;;;3.20;35.70;;;;;;3829132;27;21316;31
2021/03/06 12:24:11;;;;;;;2.55;1.80;;;3.10;35.10;;;;;;4009562;27;20131;31
2021/03/06 12:34:17;;;;;;;1.17;1.08;;;3.30;37.90;;;;;;4003908;33;20114;31
2021/03/06 12:39:36;;;;;;;3.10;1.50;;;3.30;36.80;;;;;;3995307;35;20149;31
2021/03/06 12:42:13;;;;;;;2.10;1.57;;;3.30;36.70;;;;;;4015074;33;20115;31
2021/03/06 12:44:43;;;;;;;2.83;1.70;;;3.30;37.60;;;;;;3995948;33;20126;31
2021/03/06 12:47:13;;;;;;;3.33;2.30;;;3.40;38.00;;;;;;4021304;27;20262;31
2021/03/06 12:54:48;;;;;;;3.85;1.73;;;3.50;36.70;;;;;;3998678;27;20641;31
2021/03/06 12:57:18;;;;;;;2.78;1.98;;;3.50;37.00;;;;;;4013298;27;21024;31
2021/03/06 13:02:19;;;;;;;4.22;2.08;;;3.60;37.40;;;;;;4011579;33;20145;31
2021/03/06 13:04:48;;;;;;;1.77;1.52;;;3.70;35.70;;;;;;4013253;27;20977;31
2021/03/06 13:09:46;;;;;;;2.65;1.70;;;3.70;35.60;;;;;;4008346;27;21386;31
2021/03/06 13:14:44;;;;;;;3.10;2.30;;;3.90;35.70;;;;;;4007400;27;21315;31
2021/03/06 13:17:20;;;;;;;3.95;2.35;;;4.00;35.50;;;;;;4007564;35;21289;31
2021/03/06 13:19:49;;;;;;;2.70;1.65;;;4.10;33.60;;;;;;4007532;27;20159;31
2021/03/06 13:28:08;;;;;;;1.80;1.50;;;4.10;33.20;;;;;;4103847;34;20318;31
2021/03/06 13:30:39;;;;;;;1.40;1.13;;;4.50;32.30;;;;;;4060971;34;21155;31
2021/03/06 13:35:36;;;;;;;2.36;1.26;;;4.40;32.00;;;;;;4085873;34;20138;31
2021/03/06 13:38:27;;;;;;;1.93;1.30;;;4.60;32.90;;;;;;4057635;32;21359;31
2021/03/06 13:43:25;;;;;;;1.98;1.55;;;5.50;33.00;;;;;;4085803;26;20990;31
2021/03/06 13:45:54;;;;;;;1.94;1.46;;;6.10;31.80;;;;;;4078949;32;20334;31
2021/03/06 13:53:18;;;;;;;1.75;1.30;;;6.10;30.00;;;;;;4093475;27;20937;31
2021/03/06 13:55:49;;;;;;;2.96;1.74;;;6.00;30.30;;;;;;4070114;27;20236;31
2021/03/06 14:00:46;;;;;;;4.10;1.70;;;5.90;30.00;;;;;;4092662;32;21034;31
2021/03/06 14:03:16;;;;;;;2.78;1.80;;;5.50;29.70;;;;;;4070002;34;20238;31
2021/03/06 14:05:45;;;;;;;2.08;1.73;;;5.30;30.50;;;;;;4085675;34;20120;31
2021/03/06 14:10:41;;;;;;;1.95;1.65;;;5.80;32.90;;;;;;4109699;32;20655;31
2021/03/06 14:13:09;;;;;;;2.60;1.88;;;6.20;32.10;;;;;;4085605;26;20119;31
2021/03/06 14:20:35;;;;;;;2.33;1.37;;;7.40;32.50;;;;;;4103742;32;20473;31
2021/03/06 14:25:52;;;;;;;3.70;2.08;;;8.80;30.80;;;;;;3899397;27;20429;31
2021/03/06 14:30:47;;;;;;;3.00;2.30;;;9.60;29.50;;;;;;4108437;32;21524;31
2021/03/06 14:33:15;;;;;;;4.75;2.10;;;9.80;29.20;;;;;;4079295;34;20618;31
2021/03/06 14:38:12;;;;;;;3.92;2.90;;;10.10;29.90;;;;;;4099439;34;20124;31
2021/03/06 14:40:42;;;;;;;4.78;3.50;;;10.50;29.60;;;;;;4066058;27;21046;31
2021/03/06 14:43:15;;;;;;;6.97;3.47;;;10.60;28.50;;;;;;4055799;27;20471;31
2021/03/06 14:55:36;;;;;;;4.28;3.10;;;8.90;29.00;;;;;;4082724;34;20494;31
2021/03/06 15:10:43;;;;;;;7.13;3.67;;;7.10;31.70;;;;;;4106430;32;21441;31
2021/03/06 15:37:20;;;;;;;4.82;2.35;;;3.60;37.00;;;;;;4119940;27;20108;31
2021/03/06 15:42:39;;;;;;;4.20;3.05;;;3.20;37.30;;;;;;4087771;27;21086;31
2021/03/06 15:50:15;;;;;;;6.00;2.50;;;2.90;37.70;;;;;;4078673;32;20462;31
2021/03/06 15:52:48;;;;;;;5.30;2.25;;;2.70;38.30;;;;;;4065056;27;21109;31
2021/03/06 15:55:35;;;;;;;5.80;2.70;;;2.70;38.40;;;;;;4014441;27;20143;31
2021/03/06 16:06:16;;;;;;;2.77;2.23;;;2.30;39.80;;;;;;3857894;34;20736;31
2021/03/06 16:20:46;;;;;;;5.90;2.77;;;2.30;41.40;;;;;;4095957;27;20457;31
2021/03/06 16:30:11;;;;;;;;;;;;;;;;;;;;;
2021/03/06 16:47:11;;;;;;;6.75;3.40;;;2.30;43.10;;;;;;4104191;27;20126;31
2021/03/06 16:49:51;;;;;;;5.88;2.90;;;2.20;45.40;;;;;;4039503;33;20486;31
2021/03/06 16:52:27;;;;;;;6.60;3.85;;;2.10;45.60;;;;;;4050239;27;20113;31
2021/03/06 16:57:31;;;;;;;4.20;3.20;;;1.80;46.80;;;;;;4053155;27;21350;31
2021/03/06 17:00:06;;;;;;;14.65;3.05;;;1.70;46.80;;;;;;4015537;27;21166;31
2021/03/06 17:08:15;;;;;;;6.05;3.40;;;1.60;46.70;;;;;;4041301;35;20520;31
2021/03/06 17:10:49;;;;;;;5.47;3.58;;;1.50;47.60;;;;;;4016463;35;20456;31
2021/03/06 17:13:19;;;;;;;6.97;3.97;;;1.50;47.30;;;;;;4046855;27;20536;31
2021/03/06 17:15:50;;;;;;;4.97;3.17;;;1.50;47.00;;;;;;4038784;33;20201;31
2021/03/06 17:21:19;;;;;;;6.13;3.83;;;1.40;47.30;;;;;;4017288;27;20969;31
2021/03/06 17:24:16;;;;;;;7.57;4.70;;;1.30;47.90;;;;;;4027455;34;20603;31
2021/03/06 17:27:12;;;;;;;7.40;4.40;;;1.30;48.00;;;;;;4052098;33;20125;31
2021/03/06 17:30:45;;;;;;;8.80;4.32;;;1.30;48.90;;;;;;4028588;27;21451;31
2021/03/06 17:36:32;;;;;;;6.45;3.63;;;1.20;48.10;;;;;;3850740;27;21010;31
2021/03/06 17:52:59;;;;;;;7.20;4.45;;;1.10;48.70;;;;;;4122765;27;20413;31
